createdAt,value
2018-07-20T00:02:01.151Z,4.23
2018-07-20T00:04:32.367Z,4.97
2018-07-20T00:07:00.741Z,4.90
2018-07-20T00:09:28.996Z,5.00
2018-07-20T00:12:04.181Z,4.43
2018-07-20T00:14:36.450Z,5.03
2018-07-20T00:17:07.660Z,5.00
2018-07-20T00:19:35.929Z,4.83
2018-07-20T00:22:13.483Z,5.33
2018-07-20T00:24:41.733Z,5.17
2018-07-20T00:27:12.969Z,5.13
2018-07-20T00:29:44.184Z,4.20
2018-07-20T00:32:12.604Z,5.37
2018-07-20T00:34:40.885Z,5.50
2018-07-20T00:37:15.494Z,4.93
2018-07-20T00:39:43.885Z,4.83
2018-07-20T00:42:12.114Z,5.10
2018-07-20T00:44:48.273Z,5.70
2018-07-20T00:47:18.590Z,5.70
2018-07-20T00:49:46.907Z,5.00
2018-07-20T00:52:15.089Z,4.87
2018-07-20T00:54:49.722Z,5.20
2018-07-20T00:57:17.960Z,5.53
2018-07-20T00:59:52.396Z,5.40
2018-07-20T01:02:27.760Z,5.23
2018-07-20T01:05:03.295Z,5.27
2018-07-20T01:07:34.480Z,5.50
2018-07-20T01:10:06.620Z,5.07
2018-07-20T01:12:34.857Z,4.83
2018-07-20T01:15:07.584Z,5.37
2018-07-20T01:17:35.812Z,5.70
2018-07-20T01:20:08.865Z,4.90
2018-07-20T01:22:50.196Z,5.27
2018-07-20T01:25:29.846Z,5.00
2018-07-20T01:28:00.849Z,5.80
2018-07-20T01:30:29.562Z,5.27
2018-07-20T01:33:00.762Z,5.37
2018-07-20T01:35:29.050Z,5.07
2018-07-20T01:38:01.401Z,5.80
2018-07-20T01:40:38.997Z,5.73
2018-07-20T01:43:07.924Z,6.27
2018-07-20T01:45:38.181Z,5.73
2018-07-20T01:48:06.482Z,5.40
2018-07-20T01:50:34.736Z,5.43
2018-07-20T01:53:10.315Z,5.90
2018-07-20T01:55:44.908Z,5.50
2018-07-20T01:58:13.200Z,5.40
2018-07-20T02:00:50.248Z,5.17
2018-07-20T02:03:21.773Z,5.30
2018-07-20T02:06:04.001Z,5.30
2018-07-20T02:08:38.765Z,5.90
2018-07-20T02:11:10.280Z,5.70
2018-07-20T02:13:44.916Z,5.73
2018-07-20T02:16:13.163Z,5.83
2018-07-20T02:18:48.242Z,6.63
2018-07-20T02:21:19.427Z,6.63
2018-07-20T02:23:47.661Z,6.27
2018-07-20T02:26:20.807Z,6.07
2018-07-20T02:28:53.251Z,6.40
2018-07-20T02:31:29.590Z,6.57
2018-07-20T02:34:12.745Z,5.73
2018-07-20T02:36:41.019Z,6.47
2018-07-20T02:39:13.708Z,6.17
2018-07-20T02:41:42.197Z,6.40
2018-07-20T02:44:15.463Z,6.60
2018-07-20T02:46:43.704Z,6.53
2018-07-20T02:49:25.850Z,6.20
2018-07-20T02:51:58.513Z,6.90
2018-07-20T02:54:35.369Z,6.13
2018-07-20T02:57:03.661Z,6.33
2018-07-20T02:59:32.009Z,6.33
2018-07-20T03:02:06.835Z,6.47
2018-07-20T03:04:35.291Z,6.43
2018-07-20T03:07:03.525Z,6.50
2018-07-20T03:09:36.004Z,6.30
2018-07-20T03:12:10.492Z,6.30
2018-07-20T03:14:38.830Z,6.60
2018-07-20T03:17:16.440Z,6.23
2018-07-20T03:19:44.762Z,6.60
2018-07-20T03:22:20.178Z,7.23
2018-07-20T03:24:54.755Z,6.63
2018-07-20T03:27:25.578Z,6.70
2018-07-20T03:29:54.149Z,6.97
2018-07-20T03:32:25.364Z,6.30
2018-07-20T03:34:57.697Z,6.73
2018-07-20T03:37:26.116Z,6.40
2018-07-20T03:40:00.538Z,6.17
2018-07-20T03:42:39.705Z,7.03
2018-07-20T03:45:19.691Z,5.80
2018-07-20T03:47:47.876Z,5.73
2018-07-20T03:50:20.325Z,6.03
2018-07-20T03:52:51.525Z,5.70
2018-07-20T03:55:22.593Z,5.93
2018-07-20T03:57:51.037Z,5.53
2018-07-20T04:00:19.410Z,5.70
2018-07-20T04:02:47.715Z,5.30
2018-07-20T04:05:22.634Z,5.20
2018-07-20T04:07:53.844Z,5.80
2018-07-20T04:10:22.240Z,5.47
2018-07-20T04:12:58.231Z,5.23
2018-07-20T04:15:38.323Z,5.40
2018-07-20T04:18:08.811Z,4.93
2018-07-20T04:20:37.244Z,5.17
2018-07-20T04:23:05.665Z,5.20
2018-07-20T04:25:34.017Z,5.37
2018-07-20T04:28:02.379Z,5.10
2018-07-20T04:30:35.427Z,4.97
2018-07-20T04:33:12.058Z,4.93
2018-07-20T04:35:43.093Z,5.03
2018-07-20T04:38:11.391Z,5.57
2018-07-20T04:40:39.679Z,5.60
2018-07-20T04:43:14.266Z,5.43
2018-07-20T04:45:42.557Z,5.47
2018-07-20T04:48:18.102Z,6.00
2018-07-20T04:50:52.792Z,5.03
2018-07-20T04:53:21.079Z,5.03
2018-07-20T04:55:51.213Z,5.77
2018-07-20T04:58:22.654Z,5.27
2018-07-20T05:01:02.534Z,5.00
2018-07-20T05:03:30.893Z,5.00
2018-07-20T05:06:05.535Z,5.07
2018-07-20T05:08:33.895Z,4.67
2018-07-20T05:11:04.270Z,4.33
2018-07-20T05:13:38.870Z,4.83
2018-07-20T05:16:09.883Z,5.53
2018-07-20T05:18:38.386Z,5.57
2018-07-20T05:21:16.477Z,4.67
2018-07-20T05:23:44.853Z,4.93
2018-07-20T05:26:13.141Z,4.87
2018-07-20T05:28:49.795Z,4.80
2018-07-20T05:31:18.108Z,4.50
2018-07-20T05:33:49.005Z,4.23
2018-07-20T05:36:19.339Z,4.23
2018-07-20T05:38:47.654Z,5.10
2018-07-20T05:41:16.069Z,5.70
2018-07-20T05:43:48.739Z,4.83
2018-07-20T05:46:17.155Z,4.50
2018-07-20T05:48:45.638Z,4.63
2018-07-20T05:51:14.035Z,4.83
2018-07-20T05:53:45.032Z,4.83
2018-07-20T05:56:15.302Z,4.60
2018-07-20T05:58:52.935Z,4.80
2018-07-20T06:01:24.215Z,4.73
2018-07-20T06:03:52.676Z,4.80
2018-07-20T06:06:20.894Z,4.60
2018-07-20T06:08:53.341Z,4.77
2018-07-20T06:11:24.675Z,4.37
2018-07-20T06:14:01.766Z,4.80
2018-07-20T06:16:36.095Z,4.83
2018-07-20T06:19:06.604Z,4.80
2018-07-20T06:21:35.097Z,4.77
2018-07-20T06:24:05.482Z,4.43
2018-07-20T06:26:33.875Z,4.93
2018-07-20T06:29:02.181Z,5.00
2018-07-20T06:31:30.588Z,4.37
2018-07-20T06:34:05.067Z,4.83
2018-07-20T06:36:35.121Z,4.80
2018-07-20T06:39:08.696Z,4.53
2018-07-20T06:41:42.740Z,4.40
2018-07-20T06:44:10.983Z,4.87
2018-07-20T06:46:44.295Z,4.80
2018-07-20T06:49:19.585Z,4.80
2018-07-20T06:51:55.606Z,4.57
2018-07-20T06:54:23.960Z,4.70
2018-07-20T06:56:52.249Z,4.70
2018-07-20T06:59:23.552Z,5.00
2018-07-20T07:01:58.093Z,5.20
2018-07-20T07:04:32.388Z,4.20
2018-07-20T07:07:03.562Z,4.33
2018-07-20T07:09:42.052Z,4.00
2018-07-20T07:12:10.559Z,4.47
2018-07-20T07:14:42.988Z,4.07
2018-07-20T07:17:19.370Z,4.33
2018-07-20T07:19:49.944Z,4.70
2018-07-20T07:22:20.463Z,4.43
2018-07-20T07:24:53.888Z,4.40
2018-07-20T07:27:24.183Z,4.33
2018-07-20T07:29:52.574Z,4.13
2018-07-20T07:32:21.338Z,3.67
2018-07-20T07:34:59.798Z,4.17
2018-07-20T07:37:30.061Z,4.70
2018-07-20T07:39:58.456Z,4.23
2018-07-20T07:42:26.801Z,4.47
2018-07-20T07:44:55.084Z,4.33
2018-07-20T07:47:29.811Z,4.40
2018-07-20T07:49:57.994Z,4.37
2018-07-20T07:52:31.120Z,4.30
2018-07-20T07:55:03.637Z,4.10
2018-07-20T07:57:36.078Z,4.17
2018-07-20T08:00:18.388Z,4.10
2018-07-20T08:02:51.219Z,4.23
2018-07-20T08:05:28.988Z,4.20
2018-07-20T08:07:57.224Z,3.73
2018-07-20T08:10:29.589Z,3.60
2018-07-20T08:13:00.695Z,3.50
2018-07-20T08:15:34.447Z,3.60
2018-07-20T08:18:11.236Z,3.40
2018-07-20T08:20:39.584Z,3.07
2018-07-20T08:23:07.850Z,3.43
2018-07-20T08:25:41.082Z,3.60
2018-07-20T08:28:14.475Z,3.63
2018-07-20T08:30:42.726Z,3.17
2018-07-20T08:33:11.216Z,3.23
2018-07-20T08:35:39.588Z,3.80
2018-07-20T08:38:07.754Z,3.30
2018-07-20T08:40:38.796Z,3.90
2018-07-20T08:43:09.146Z,3.50
2018-07-20T08:45:37.356Z,4.10
2018-07-20T08:48:17.966Z,3.97
2018-07-20T08:50:46.286Z,3.53
2018-07-20T08:53:26.113Z,3.83
2018-07-20T08:55:59.561Z,3.33
2018-07-20T08:58:30.757Z,4.00
2018-07-20T09:00:59.041Z,3.60
2018-07-20T09:03:29.311Z,3.50
2018-07-20T09:06:02.591Z,3.27
2018-07-20T09:08:33.743Z,3.30
2018-07-20T09:11:02.171Z,3.10
2018-07-20T09:13:30.466Z,3.53
2018-07-20T09:16:10.347Z,3.70
2018-07-20T09:18:41.276Z,3.43
2018-07-20T09:21:18.675Z,3.10
2018-07-20T09:23:53.238Z,3.50
2018-07-20T09:26:21.518Z,3.47
2018-07-20T09:28:57.756Z,3.53
2018-07-20T09:31:26.027Z,3.97
2018-07-20T09:33:56.469Z,3.70
2018-07-20T09:36:24.939Z,4.00
2018-07-20T09:38:53.119Z,3.47
2018-07-20T09:41:25.721Z,3.53
2018-07-20T09:43:54.047Z,3.50
2018-07-20T09:46:29.416Z,3.20
2018-07-20T09:49:06.119Z,3.30
2018-07-20T09:51:34.461Z,3.50
2018-07-20T09:54:06.847Z,3.43
2018-07-20T09:56:40.331Z,4.00
2018-07-20T09:59:11.161Z,3.73
2018-07-20T10:01:43.803Z,3.40
2018-07-20T10:06:56.965Z,3.43
2018-07-20T10:09:36.902Z,3.80
2018-07-20T10:12:05.449Z,3.80
2018-07-20T10:14:33.763Z,3.63
2018-07-20T10:17:01.978Z,3.60
2018-07-20T10:19:32.352Z,3.20
2018-07-20T10:22:07.428Z,3.33
2018-07-20T10:24:39.919Z,4.17
2018-07-20T10:29:44.035Z,4.00
2018-07-20T10:32:16.227Z,3.30
2018-07-20T10:34:56.377Z,3.47
2018-07-20T10:37:24.689Z,3.50
2018-07-20T10:39:55.159Z,3.40
2018-07-20T10:44:58.368Z,4.03
2018-07-20T10:47:26.576Z,3.90
2018-07-20T10:49:58.983Z,4.13
2018-07-20T10:52:31.403Z,3.80
2018-07-20T10:55:08.645Z,3.80
2018-07-20T10:57:50.819Z,3.70
2018-07-20T11:00:21.229Z,4.00
2018-07-20T11:02:59.720Z,3.70
2018-07-20T11:05:33.523Z,3.43
2018-07-20T11:08:08.022Z,3.67
2018-07-20T11:10:40.564Z,3.40
2018-07-20T11:13:08.805Z,3.67
2018-07-20T11:15:43.403Z,3.80
2018-07-20T11:18:14.491Z,3.47
2018-07-20T11:20:54.623Z,3.60
2018-07-20T11:23:23.099Z,3.60
2018-07-20T11:25:51.395Z,3.33
2018-07-20T11:28:19.627Z,3.53
2018-07-20T11:30:52.774Z,3.67
2018-07-20T11:33:41.029Z,3.43
2018-07-20T11:36:12.241Z,4.03
2018-07-20T11:38:40.525Z,3.43
2018-07-20T11:41:13.100Z,3.77
2018-07-20T11:43:41.804Z,3.23
2018-07-20T11:46:10.243Z,4.00
2018-07-20T11:48:38.521Z,4.00
2018-07-20T11:51:08.563Z,3.63
2018-07-20T11:53:47.184Z,3.83
2018-07-20T11:56:17.708Z,4.80
2018-07-20T11:58:52.190Z,3.97
2018-07-20T12:01:23.286Z,4.17
2018-07-20T12:04:03.178Z,3.90
2018-07-20T12:06:34.202Z,3.77
2018-07-20T12:09:06.337Z,4.60
2018-07-20T12:11:34.652Z,3.90
2018-07-20T12:14:02.956Z,3.70
2018-07-20T12:16:38.608Z,4.50
2018-07-20T12:19:06.791Z,4.90
2018-07-20T12:21:48.917Z,4.17
2018-07-20T12:24:19.380Z,5.83
2018-07-20T12:26:50.547Z,4.70
2018-07-20T12:29:18.756Z,4.47
2018-07-20T12:31:53.246Z,4.40
2018-07-20T12:34:21.659Z,4.33
2018-07-20T12:36:57.074Z,4.30
2018-07-20T12:39:33.098Z,4.57
2018-07-20T12:42:03.365Z,4.80
2018-07-20T12:44:31.650Z,4.27
2018-07-20T12:47:02.690Z,4.40
2018-07-20T12:49:35.999Z,4.30
2018-07-20T12:52:06.292Z,4.47
2018-07-20T12:54:34.569Z,4.63
2018-07-20T12:57:06.958Z,4.67
2018-07-20T12:59:38.383Z,5.30
2018-07-20T13:02:10.883Z,5.10
2018-07-20T13:04:45.383Z,4.90
2018-07-20T13:07:13.669Z,4.37
2018-07-20T13:09:55.788Z,4.53
2018-07-20T13:12:26.350Z,4.57
2018-07-20T13:14:54.757Z,5.13
2018-07-20T13:17:28.067Z,4.27
2018-07-20T13:19:56.477Z,5.00
2018-07-20T13:22:24.649Z,4.40
2018-07-20T13:24:54.677Z,4.57
2018-07-20T13:27:24.919Z,4.93
2018-07-20T13:29:53.113Z,4.67
2018-07-20T13:32:21.941Z,4.80
2018-07-20T13:34:50.153Z,4.57
2018-07-20T13:37:20.399Z,4.63
2018-07-20T13:39:53.679Z,4.93
2018-07-20T13:42:29.210Z,5.30
2018-07-20T13:45:02.504Z,5.50
2018-07-20T13:47:40.911Z,4.90
2018-07-20T13:50:12.326Z,4.77
2018-07-20T13:52:42.485Z,4.63
2018-07-20T13:55:10.694Z,5.20
2018-07-20T13:57:41.863Z,4.77
2018-07-20T14:00:21.822Z,5.03
2018-07-20T14:02:49.981Z,4.80
2018-07-20T14:05:18.299Z,4.90
2018-07-20T14:07:48.814Z,5.20
2018-07-20T14:10:19.442Z,4.40
2018-07-20T14:15:27.569Z,4.93
2018-07-20T14:18:00.962Z,5.00
2018-07-20T14:20:33.759Z,4.90
2018-07-20T14:23:02.186Z,6.30
2018-07-20T14:25:30.442Z,6.13
2018-07-20T14:28:02.958Z,5.90
2018-07-20T14:30:31.251Z,5.57
2018-07-20T14:33:11.344Z,5.67
2018-07-20T14:38:24.746Z,5.50
2018-07-20T14:40:53.059Z,5.50
2018-07-20T14:43:28.478Z,5.60
2018-07-20T14:46:05.069Z,5.80
2018-07-20T14:48:33.346Z,5.73
2018-07-20T14:51:04.520Z,5.67
2018-07-20T14:53:40.884Z,5.77
2018-07-20T14:56:11.120Z,6.30
2018-07-20T14:58:39.287Z,5.73
2018-07-20T15:01:11.747Z,6.00
2018-07-20T15:03:42.076Z,5.60
2018-07-20T15:06:15.532Z,5.87
2018-07-20T15:08:50.189Z,5.80
2018-07-20T15:11:23.713Z,5.97
2018-07-20T15:13:56.009Z,5.30
2018-07-20T15:16:28.555Z,5.50
2018-07-20T15:19:01.827Z,5.80
2018-07-20T15:21:34.057Z,5.57
2018-07-20T15:24:04.405Z,6.20
2018-07-20T15:26:34.847Z,5.50
2018-07-20T15:29:05.347Z,6.30
2018-07-20T15:31:36.609Z,5.57
2018-07-20T15:34:04.952Z,6.03
2018-07-20T15:36:37.824Z,6.37
2018-07-20T15:39:08.343Z,5.87
2018-07-20T15:41:38.575Z,6.00
2018-07-20T15:44:06.738Z,6.07
2018-07-20T15:46:41.353Z,6.03
2018-07-20T15:49:13.679Z,5.87
2018-07-20T15:53:35.717Z,6.07
2018-07-20T15:54:21.697Z,5.70
2018-07-20T15:56:49.910Z,5.93
2018-07-20T15:59:24.914Z,6.43
2018-07-20T16:01:53.325Z,6.30
2018-07-20T16:04:21.508Z,6.83
2018-07-20T16:06:54.470Z,6.40
2018-07-20T16:09:25.698Z,6.20
2018-07-20T16:11:53.884Z,6.17
2018-07-20T16:14:29.377Z,5.83
2018-07-20T16:17:00.435Z,5.73
2018-07-20T16:19:32.895Z,5.80
2018-07-20T16:22:03.411Z,6.07
2018-07-20T16:24:50.608Z,5.60
2018-07-20T16:27:20.936Z,6.17
2018-07-20T16:29:49.317Z,6.47
2018-07-20T16:32:17.518Z,5.80
2018-07-20T16:34:53.138Z,5.90
2018-07-20T16:37:21.372Z,5.53
2018-07-20T16:40:03.433Z,6.10
2018-07-20T16:42:33.699Z,6.47
2018-07-20T16:45:01.907Z,6.03
2018-07-20T16:47:35.358Z,6.20
2018-07-20T16:50:13.192Z,6.03
2018-07-20T16:52:41.700Z,6.43
2018-07-20T16:55:10.280Z,6.30
2018-07-20T16:57:40.679Z,6.43
2018-07-20T17:00:11.848Z,5.63
2018-07-20T17:02:40.010Z,6.50
2018-07-20T17:05:15.516Z,6.20
2018-07-20T17:07:49.954Z,6.23
2018-07-20T17:10:24.614Z,6.10
2018-07-20T17:12:52.864Z,6.43
2018-07-20T17:15:30.783Z,6.20
2018-07-20T17:17:58.919Z,7.40
2018-07-20T17:20:33.640Z,6.70
2018-07-20T17:23:01.958Z,6.47
2018-07-20T17:25:30.125Z,6.93
2018-07-20T17:28:10.205Z,6.17
2018-07-20T17:30:38.630Z,6.80
2018-07-20T17:33:07.103Z,6.50
2018-07-20T17:35:35.428Z,6.50
2018-07-20T17:38:03.575Z,6.53
2018-07-20T17:40:35.810Z,7.47
2018-07-20T17:43:06.295Z,6.50
2018-07-20T17:45:34.798Z,6.37
2018-07-20T17:48:14.783Z,6.43
2018-07-20T17:50:43.065Z,6.57
2018-07-20T17:53:16.320Z,6.83
2018-07-20T17:55:47.208Z,6.47
2018-07-20T17:58:15.480Z,7.20
2018-07-20T18:00:49.876Z,6.40
2018-07-20T18:03:24.619Z,6.63
2018-07-20T18:05:52.818Z,6.77
2018-07-20T18:08:27.440Z,6.80
2018-07-20T18:10:55.624Z,6.53
2018-07-20T18:13:31.299Z,6.70
2018-07-20T18:16:02.207Z,6.50
2018-07-20T18:18:32.537Z,7.00
2018-07-20T18:21:00.748Z,7.13
2018-07-20T18:23:31.752Z,7.13
2018-07-20T18:26:02.891Z,6.90
2018-07-20T18:28:31.070Z,6.63
2018-07-20T18:31:06.274Z,6.97
2018-07-20T18:33:38.520Z,7.10
2018-07-20T18:36:06.898Z,6.70
2018-07-20T18:38:35.004Z,6.60
2018-07-20T18:41:10.089Z,6.73
2018-07-20T18:43:40.591Z,6.60
2018-07-20T18:46:18.926Z,6.93
2018-07-20T18:48:48.955Z,6.50
2018-07-20T18:51:26.877Z,6.83
2018-07-20T18:53:58.607Z,9.30
2018-07-20T18:56:36.272Z,8.90
2018-07-20T18:59:14.138Z,9.23
2018-07-20T19:01:44.599Z,8.20
2018-07-20T19:04:12.963Z,7.23
2018-07-20T19:06:41.383Z,7.10
2018-07-20T19:09:10.733Z,6.87
2018-07-20T19:11:39.220Z,6.70
2018-07-20T19:14:07.408Z,7.13
2018-07-20T19:16:40.940Z,6.90
2018-07-20T19:19:18.559Z,7.53
2018-07-20T19:21:59.817Z,7.23
2018-07-20T19:24:28.730Z,6.97
2018-07-20T19:26:59.478Z,6.73
2018-07-20T19:29:36.290Z,6.43
2018-07-20T19:32:04.610Z,7.43
2018-07-20T19:34:36.888Z,6.90
2018-07-20T19:37:07.908Z,7.10
2018-07-20T19:39:36.078Z,7.33
2018-07-20T19:42:11.537Z,7.43
2018-07-20T19:44:44.773Z,7.80
2018-07-20T19:47:18.048Z,7.20
2018-07-20T19:49:49.211Z,7.17
2018-07-20T19:52:17.417Z,6.90
2018-07-20T19:54:52.051Z,7.07
2018-07-20T19:57:20.233Z,7.53
2018-07-20T19:59:48.142Z,7.27
2018-07-20T20:02:16.315Z,7.23
2018-07-20T20:04:44.818Z,7.63
2018-07-20T20:07:21.436Z,7.17
2018-07-20T20:09:49.699Z,7.50
2018-07-20T20:12:17.940Z,7.13
2018-07-20T20:14:48.372Z,7.30
2018-07-20T20:17:16.548Z,7.70
2018-07-20T20:19:44.789Z,8.33
2018-07-20T20:22:18.105Z,7.13
2018-07-20T20:24:52.440Z,8.37
2018-07-20T20:27:23.365Z,7.00
2018-07-20T20:29:51.571Z,7.33
2018-07-20T20:32:24.703Z,7.90
2018-07-20T20:34:57.383Z,7.23
2018-07-20T20:37:28.246Z,7.80
2018-07-20T20:39:56.460Z,7.77
2018-07-20T20:42:30.751Z,7.90
2018-07-20T20:45:06.073Z,7.87
2018-07-20T20:47:40.654Z,7.97
2018-07-20T20:50:17.257Z,7.50
2018-07-20T20:52:48.517Z,8.00
2018-07-20T20:55:21.956Z,7.40
2018-07-20T20:57:52.889Z,7.63
2018-07-20T21:00:21.059Z,7.83
2018-07-20T21:03:00.854Z,7.63
2018-07-20T21:05:29.134Z,7.77
2018-07-20T21:08:02.486Z,7.80
2018-07-20T21:10:38.501Z,7.40
2018-07-20T21:13:18.378Z,8.37
2018-07-20T21:15:50.493Z,8.07
2018-07-20T21:18:18.765Z,8.13
2018-07-20T21:20:49.327Z,7.63
2018-07-20T21:23:29.056Z,7.83
2018-07-20T21:26:03.843Z,7.27
2018-07-20T21:28:32.047Z,7.17
2018-07-20T21:31:06.012Z,6.93
2018-07-20T21:33:34.247Z,7.90
2018-07-20T21:36:02.467Z,7.73
2018-07-20T21:38:37.075Z,7.73
2018-07-20T21:41:05.304Z,6.67
2018-07-20T21:43:39.653Z,7.13
2018-07-20T21:46:13.220Z,6.70
2018-07-20T21:48:48.139Z,7.17
2018-07-20T21:51:16.255Z,7.17
2018-07-20T21:53:49.040Z,6.80
2018-07-20T21:56:17.203Z,6.67
2018-07-20T21:58:52.482Z,6.27
2018-07-20T22:01:23.587Z,6.40
2018-07-20T22:03:51.936Z,6.30
2018-07-20T22:06:20.173Z,5.80
2018-07-20T22:11:33.996Z,6.50
2018-07-20T22:14:10.772Z,6.17
2018-07-20T22:16:39.015Z,6.03
2018-07-20T22:19:11.313Z,5.80
2018-07-20T22:21:45.934Z,5.70
2018-07-20T22:24:14.104Z,6.00
2018-07-20T22:26:45.094Z,5.80
2018-07-20T22:29:13.430Z,5.90
2018-07-20T22:31:41.661Z,5.17
2018-07-20T22:34:17.126Z,5.63
2018-07-20T22:36:57.048Z,5.53
2018-07-20T22:39:27.493Z,5.33
2018-07-20T22:41:55.948Z,5.33
2018-07-20T22:44:28.799Z,5.40
2018-07-20T22:46:59.753Z,5.30
2018-07-20T22:49:28.029Z,5.00
2018-07-20T22:52:00.462Z,4.80
2018-07-20T22:54:35.154Z,4.60
2018-07-20T22:57:03.388Z,4.53
2018-07-20T22:59:38.663Z,4.67
2018-07-20T23:02:14.161Z,4.57
2018-07-20T23:04:54.097Z,4.83
2018-07-20T23:07:22.484Z,4.53
2018-07-20T23:09:50.765Z,4.70
2018-07-20T23:12:23.299Z,4.00
2018-07-20T23:14:51.522Z,4.10
2018-07-20T23:17:26.976Z,4.60
2018-07-20T23:20:01.488Z,4.40
2018-07-20T23:22:42.085Z,4.53
2018-07-20T23:25:10.327Z,4.70
2018-07-20T23:27:42.131Z,4.53
2018-07-20T23:30:10.368Z,4.20
2018-07-20T23:32:43.393Z,4.00
2018-07-20T23:35:23.437Z,4.13
2018-07-20T23:37:51.672Z,3.77
2018-07-20T23:40:25.942Z,3.93
2018-07-20T23:43:00.156Z,4.10
2018-07-20T23:45:36.688Z,4.20
2018-07-20T23:48:07.781Z,4.07
2018-07-20T23:50:36.276Z,4.00
2018-07-20T23:53:04.482Z,4.17
2018-07-20T23:55:45.883Z,3.63
2018-07-20T23:58:27.616Z,4.07
